Time,TemperatureF,DewpointF,PressureIn,WindDirection,WindDirectionDegrees,WindSpeedMPH,WindSpeedGustMPH,Humidity,HourlyPrecipIn,Conditions,Clouds,dailyrainin,SoftwareType,DateUTC
2013-01-29 00:21:00,47.0,42.0,30.27,SW,226,7.0,-999.0,82,-99.99,,,-99.99,,2013-01-29 08:21:00,
2013-01-29 00:32:00,47.0,42.0,30.27,SW,226,7.0,-999.0,82,-99.99,,,-99.99,,2013-01-29 08:32:00,
2013-01-29 00:42:00,47.0,42.0,30.27,SW,226,7.0,-999.0,82,-99.99,,,-99.99,,2013-01-29 08:42:00,
2013-01-29 00:52:00,47.0,42.0,30.27,SW,226,7.0,-999.0,82,-99.99,,,-99.99,,2013-01-29 08:52:00,
2013-01-29 01:01:00,47.0,42.0,30.27,SW,226,7.0,-999.0,82,-99.99,,,-99.99,,2013-01-29 09:01:00,
2013-01-29 02:21:00,47.0,42.0,30.28,West,262,8.0,-999.0,82,-99.99,,,-99.99,,2013-01-29 10:21:00,
2013-01-29 02:32:00,47.0,42.0,30.28,West,262,8.0,-999.0,82,-99.99,,,-99.99,,2013-01-29 10:32:00,
2013-01-29 02:42:00,47.0,42.0,30.28,West,262,8.0,-999.0,82,-99.99,,,-99.99,,2013-01-29 10:42:00,
2013-01-29 02:52:00,47.0,42.0,30.28,West,262,8.0,-999.0,82,-99.99,,,-99.99,,2013-01-29 10:52:00,
2013-01-29 03:01:00,47.0,42.0,30.28,West,262,8.0,-999.0,82,-99.99,,,-99.99,,2013-01-29 11:01:00,
2013-01-29 04:22:00,46.0,41.0,30.29,West,269,8.0,-999.0,81,-99.99,,,-99.99,,2013-01-29 12:22:00,
2013-01-29 04:33:00,46.0,41.0,30.29,West,269,8.0,-999.0,81,-99.99,,,-99.99,,2013-01-29 12:33:00,
2013-01-29 04:43:00,46.0,41.0,30.29,West,269,8.0,-999.0,81,-99.99,,,-99.99,,2013-01-29 12:43:00,
2013-01-29 04:52:00,46.0,41.0,30.29,West,269,8.0,-999.0,81,-99.99,,,-99.99,,2013-01-29 12:52:00,
2013-01-29 05:01:00,46.0,41.0,30.29,West,269,8.0,-999.0,81,-99.99,,,-99.99,,2013-01-29 13:01:00,
2013-01-29 06:12:00,46.0,41.0,30.30,SW,236,5.0,-999.0,83,-99.99,,,-99.99,,2013-01-29 14:12:00,
2013-01-29 06:22:00,46.0,41.0,30.30,SW,236,5.0,-999.0,83,-99.99,,,-99.99,,2013-01-29 14:22:00,
2013-01-29 06:33:00,46.0,41.0,30.30,SW,236,5.0,-999.0,83,-99.99,,,-99.99,,2013-01-29 14:33:00,
2013-01-29 06:43:00,46.0,41.0,30.30,SW,236,5.0,-999.0,83,-99.99,,,-99.99,,2013-01-29 14:43:00,
2013-01-29 06:52:00,46.0,41.0,30.30,SW,236,5.0,-999.0,83,-99.99,,,-99.99,,2013-01-29 14:52:00,
2013-01-29 07:01:00,46.0,41.0,30.30,SW,236,5.0,-999.0,83,-99.99,,,-99.99,,2013-01-29 15:01:00,
2013-01-29 08:23:00,46.0,41.0,30.32,WSW,245,8.0,-999.0,84,-99.99,,,-99.99,,2013-01-29 16:23:00,
2013-01-29 08:33:00,46.0,41.0,30.32,WSW,245,8.0,-999.0,84,-99.99,,,-99.99,,2013-01-29 16:33:00,
2013-01-29 08:43:00,46.0,41.0,30.32,WSW,245,8.0,-999.0,84,-99.99,,,-99.99,,2013-01-29 16:43:00,
2013-01-29 08:53:00,46.0,41.0,30.32,WSW,245,8.0,-999.0,84,-99.99,,,-99.99,,2013-01-29 16:53:00,
2013-01-29 09:02:00,46.0,41.0,30.32,WSW,245,8.0,-999.0,84,-99.99,,,-99.99,,2013-01-29 17:02:00,
2013-01-29 10:22:00,49.0,42.0,30.34,West,278,4.0,-999.0,77,-99.99,,,-99.99,,2013-01-29 18:22:00,
2013-01-29 10:33:00,49.0,42.0,30.34,West,278,4.0,-999.0,77,-99.99,,,-99.99,,2013-01-29 18:33:00,
2013-01-29 10:42:00,49.0,42.0,30.34,West,278,4.0,-999.0,77,-99.99,,,-99.99,,2013-01-29 18:42:00,
2013-01-29 10:52:00,49.0,42.0,30.34,West,278,4.0,-999.0,77,-99.99,,,-99.99,,2013-01-29 18:52:00,
2013-01-29 11:01:00,49.0,42.0,30.34,West,278,4.0,-999.0,77,-99.99,,,-99.99,,2013-01-29 19:01:00,
2013-01-29 12:23:00,52.0,43.0,30.33,East,82,5.0,-999.0,70,-99.99,,,-99.99,,2013-01-29 20:23:00,
2013-01-29 12:33:00,52.0,43.0,30.33,East,82,5.0,-999.0,70,-99.99,,,-99.99,,2013-01-29 20:33:00,
2013-01-29 12:42:00,52.0,43.0,30.33,East,82,5.0,-999.0,70,-99.99,,,-99.99,,2013-01-29 20:42:00,
2013-01-29 12:53:00,52.0,43.0,30.33,East,82,5.0,-999.0,70,-99.99,,,-99.99,,2013-01-29 20:53:00,
2013-01-29 13:01:00,52.0,43.0,30.33,East,82,5.0,-999.0,70,-99.99,,,-99.99,,2013-01-29 21:01:00,
2013-01-29 16:22:00,54.0,46.0,30.26,WSW,257,9.0,-999.0,75,-99.99,,,-99.99,,2013-01-30 00:22:00,
2013-01-29 16:32:00,54.0,46.0,30.26,WSW,257,9.0,-999.0,75,-99.99,,,-99.99,,2013-01-30 00:32:00,
2013-01-29 16:43:00,54.0,46.0,30.26,WSW,257,9.0,-999.0,75,-99.99,,,-99.99,,2013-01-30 00:43:00,
2013-01-29 16:52:00,54.0,46.0,30.26,WSW,257,9.0,-999.0,75,-99.99,,,-99.99,,2013-01-30 00:52:00,
2013-01-29 17:01:00,54.0,46.0,30.26,WSW,257,9.0,-999.0,75,-99.99,,,-99.99,,2013-01-30 01:01:00,
2013-01-29 18:22:00,51.0,45.0,30.25,WNW,283,7.0,-999.0,81,-99.99,,,-99.99,,2013-01-30 02:22:00,
2013-01-29 18:33:00,51.0,45.0,30.25,WNW,283,7.0,-999.0,81,-99.99,,,-99.99,,2013-01-30 02:33:00,
2013-01-29 18:42:00,51.0,45.0,30.25,WNW,283,7.0,-999.0,81,-99.99,,,-99.99,,2013-01-30 02:42:00,
2013-01-29 18:53:00,51.0,45.0,30.25,WNW,283,7.0,-999.0,81,-99.99,,,-99.99,,2013-01-30 02:53:00,
2013-01-29 19:02:00,51.0,45.0,30.25,WNW,283,7.0,-999.0,81,-99.99,,,-99.99,,2013-01-30 03:02:00,
2013-01-29 22:22:00,49.0,45.0,30.28,SSW,213,2.0,-999.0,86,-99.99,,,-99.99,,2013-01-30 06:22:00,
2013-01-29 22:32:00,49.0,45.0,30.28,SSW,213,2.0,-999.0,86,-99.99,,,-99.99,,2013-01-30 06:32:00,
2013-01-29 22:42:00,49.0,45.0,30.28,SSW,213,2.0,-999.0,86,-99.99,,,-99.99,,2013-01-30 06:42:00,
2013-01-29 22:52:00,49.0,45.0,30.28,SSW,213,2.0,-999.0,86,-99.99,,,-99.99,,2013-01-30 06:52:00,
2013-01-29 23:01:00,49.0,45.0,30.28,SSW,213,2.0,-999.0,86,-99.99,,,-99.99,,2013-01-30 07:01:00,